createdAt,value
2023-05-19T00:01:19.263Z,13.70
2023-05-19T00:03:59.004Z,13.70
2023-05-19T00:06:31.705Z,13.60
2023-05-19T00:09:02.571Z,13.60
2023-05-19T00:11:30.049Z,13.70
2023-05-19T00:13:59.798Z,13.70
2023-05-19T00:16:28.444Z,13.70
2023-05-19T00:18:58.045Z,13.70
2023-05-19T00:21:24.910Z,13.70
2023-05-19T00:23:52.151Z,13.80
2023-05-19T00:26:19.031Z,13.80
2023-05-19T00:28:55.083Z,13.80
2023-05-19T00:31:22.095Z,13.80
2023-05-19T00:33:49.107Z,13.70
2023-05-19T00:36:16.323Z,13.70
2023-05-19T00:38:43.218Z,13.60
2023-05-19T00:41:10.942Z,13.60
2023-05-19T00:43:37.831Z,13.60
2023-05-19T00:46:04.812Z,13.60
2023-05-19T00:48:31.742Z,13.70
2023-05-19T00:51:04.493Z,13.70
2023-05-19T00:53:35.427Z,13.60
2023-05-19T00:56:03.691Z,13.60
2023-05-19T00:58:32.681Z,13.60
2023-05-19T01:01:05.268Z,13.60
2023-05-19T01:03:37.102Z,13.60
2023-05-19T01:06:07.955Z,13.60
2023-05-19T01:08:37.396Z,13.60
2023-05-19T01:11:08.021Z,13.60
2023-05-19T01:13:36.264Z,13.60
2023-05-19T01:16:07.135Z,13.60
2023-05-19T01:18:44.606Z,13.60
2023-05-19T01:21:23.544Z,13.60
2023-05-19T01:24:23.264Z,13.60
2023-05-19T01:27:16.303Z,13.60
2023-05-19T01:30:11.768Z,13.50
2023-05-19T01:32:41.568Z,13.40
2023-05-19T01:35:10.296Z,13.40
2023-05-19T01:37:39.021Z,13.40
2023-05-19T01:40:07.970Z,13.40
2023-05-19T01:42:37.944Z,13.30
2023-05-19T01:45:06.767Z,13.30
2023-05-19T01:47:38.392Z,13.30
2023-05-19T01:50:06.131Z,13.30
2023-05-19T01:52:33.439Z,13.10
2023-05-19T01:55:00.517Z,13.10
2023-05-19T01:57:27.400Z,13.00
2023-05-19T02:00:15.725Z,12.90
2023-05-19T02:02:51.494Z,12.80
2023-05-19T02:05:38.392Z,12.80
2023-05-19T02:08:08.212Z,12.80
2023-05-19T02:10:40.928Z,12.90
2023-05-19T02:13:11.305Z,12.90
2023-05-19T02:15:40.277Z,13.00
2023-05-19T02:18:11.445Z,13.00
2023-05-19T02:20:39.840Z,13.10
2023-05-19T02:23:07.234Z,13.10
2023-05-19T02:25:34.878Z,13.20
2023-05-19T02:28:01.817Z,13.20
2023-05-19T02:30:31.897Z,13.10
2023-05-19T02:33:00.614Z,12.90
2023-05-19T02:35:28.060Z,13.00
2023-05-19T02:37:55.108Z,13.10
2023-05-19T02:40:22.965Z,13.10
2023-05-19T02:42:50.278Z,13.20
2023-05-19T02:45:17.636Z,13.20
2023-05-19T02:47:44.711Z,13.20
2023-05-19T02:50:11.750Z,13.20
2023-05-19T02:52:38.634Z,13.20
2023-05-19T02:55:06.049Z,13.20
2023-05-19T02:57:34.603Z,13.20
2023-05-19T03:00:01.723Z,13.20
2023-05-19T03:02:28.856Z,13.10
2023-05-19T03:04:55.869Z,13.10
2023-05-19T03:07:25.362Z,13.10
2023-05-19T03:09:53.025Z,13.00
2023-05-19T03:12:19.943Z,13.00
2023-05-19T03:14:47.520Z,12.90
2023-05-19T03:17:14.533Z,12.90
2023-05-19T03:19:41.626Z,12.90
2023-05-19T03:22:08.603Z,12.80
2023-05-19T03:24:36.835Z,12.80
2023-05-19T03:27:05.820Z,12.90
2023-05-19T03:29:33.125Z,12.80
2023-05-19T03:32:00.337Z,12.80
2023-05-19T03:34:27.387Z,12.70
2023-05-19T03:36:55.010Z,12.70
2023-05-19T03:39:22.733Z,12.70
2023-05-19T03:41:49.945Z,12.70
2023-05-19T03:44:16.876Z,12.70
2023-05-19T03:46:44.408Z,12.80
2023-05-19T03:49:11.853Z,12.70
2023-05-19T03:52:03.394Z,12.70
2023-05-19T03:54:53.063Z,12.70
2023-05-19T03:57:20.126Z,12.80
2023-05-19T03:59:47.782Z,12.80
2023-05-19T04:02:14.737Z,12.80
2023-05-19T04:04:42.135Z,12.70
2023-05-19T04:07:11.723Z,12.60
2023-05-19T04:09:39.035Z,12.60
2023-05-19T04:12:06.353Z,12.50
2023-05-19T04:14:33.300Z,12.40
2023-05-19T04:17:00.644Z,12.50
2023-05-19T04:19:27.709Z,12.50
2023-05-19T04:21:55.669Z,12.50
2023-05-19T04:24:22.634Z,12.50
2023-05-19T04:26:49.677Z,12.60
2023-05-19T04:29:18.380Z,12.60
2023-05-19T04:31:45.730Z,12.50
2023-05-19T04:34:12.681Z,12.50
2023-05-19T04:36:39.907Z,12.50
2023-05-19T04:39:09.612Z,12.50
2023-05-19T04:41:40.495Z,12.40
2023-05-19T04:44:09.322Z,12.30
2023-05-19T04:46:37.376Z,12.30
2023-05-19T04:49:05.615Z,12.30
2023-05-19T04:51:32.683Z,12.40
2023-05-19T04:54:01.563Z,12.40
2023-05-19T04:56:28.923Z,12.40
2023-05-19T04:58:56.709Z,12.50
2023-05-19T05:01:26.112Z,12.50
2023-05-19T05:03:55.416Z,12.60
2023-05-19T05:06:22.524Z,12.70
2023-05-19T05:08:49.688Z,12.80
2023-05-19T05:11:17.522Z,12.80
2023-05-19T05:13:45.116Z,12.80
2023-05-19T05:16:12.893Z,12.80
2023-05-19T05:18:41.684Z,13.00
2023-05-19T05:21:11.101Z,13.10
2023-05-19T05:23:38.289Z,13.20
2023-05-19T05:26:17.425Z,13.30
2023-05-19T05:28:45.910Z,13.30
2023-05-19T05:31:12.970Z,13.40
2023-05-19T05:33:41.421Z,13.40
2023-05-19T05:36:09.270Z,13.60
2023-05-19T05:38:36.244Z,13.70
2023-05-19T05:41:03.498Z,13.80
2023-05-19T05:43:31.193Z,13.90
2023-05-19T05:46:00.980Z,13.80
2023-05-19T05:48:28.257Z,13.90
2023-05-19T05:50:57.225Z,14.00
2023-05-19T05:53:32.163Z,14.10
2023-05-19T05:56:01.280Z,14.10
2023-05-19T05:58:37.818Z,14.20
2023-05-19T06:01:05.471Z,14.30
2023-05-19T06:03:33.562Z,14.30
2023-05-19T06:06:05.114Z,14.30
2023-05-19T06:08:32.272Z,14.30
2023-05-19T06:10:59.291Z,14.10
2023-05-19T06:13:27.878Z,13.90
2023-05-19T06:15:54.957Z,14.00
2023-05-19T06:18:30.704Z,14.00
2023-05-19T06:20:57.723Z,14.00
2023-05-19T06:23:26.755Z,14.00
2023-05-19T06:25:53.768Z,14.10
2023-05-19T06:28:20.954Z,14.20
2023-05-19T06:30:48.142Z,14.20
2023-05-19T06:33:29.131Z,14.30
2023-05-19T06:35:56.570Z,14.30
2023-05-19T06:38:23.538Z,14.50
2023-05-19T06:40:50.917Z,14.40
2023-05-19T06:43:18.530Z,14.50
2023-05-19T06:45:53.929Z,14.60
2023-05-19T06:48:22.003Z,14.80
2023-05-19T06:50:49.160Z,14.90
2023-05-19T06:53:17.496Z,14.90
2023-05-19T06:55:57.563Z,15.00
2023-05-19T06:58:28.004Z,15.10
2023-05-19T07:00:55.642Z,15.10
2023-05-19T07:03:24.979Z,15.20
2023-05-19T07:05:52.128Z,15.30
2023-05-19T07:08:19.055Z,15.40
2023-05-19T07:10:45.983Z,15.50
2023-05-19T07:13:15.163Z,15.70
2023-05-19T07:15:42.123Z,15.90
2023-05-19T07:18:09.415Z,15.90
2023-05-19T07:20:36.389Z,16.00
2023-05-19T07:23:05.279Z,16.10
2023-05-19T07:25:33.253Z,16.20
2023-05-19T07:28:00.671Z,16.10
2023-05-19T07:30:28.711Z,16.20
2023-05-19T07:32:56.062Z,16.10
2023-05-19T07:35:23.074Z,16.10
2023-05-19T07:37:51.880Z,16.20
2023-05-19T07:40:19.111Z,16.30
2023-05-19T07:42:46.235Z,16.30
2023-05-19T07:45:13.250Z,16.10
2023-05-19T07:47:40.217Z,16.00
2023-05-19T07:50:07.785Z,16.10
2023-05-19T07:52:34.800Z,16.20
2023-05-19T07:55:01.718Z,16.30
2023-05-19T07:57:28.601Z,16.60
2023-05-19T07:59:55.655Z,16.60
2023-05-19T08:02:22.714Z,16.50
2023-05-19T08:04:49.950Z,16.70
2023-05-19T08:07:16.878Z,16.90
2023-05-19T08:09:43.807Z,16.90
2023-05-19T08:12:10.899Z,17.10
2023-05-19T08:14:37.813Z,17.00
2023-05-19T08:17:05.010Z,17.30
2023-05-19T08:19:32.134Z,17.20
2023-05-19T08:22:01.197Z,17.10
2023-05-19T08:24:32.731Z,17.10
2023-05-19T08:26:59.880Z,17.30
2023-05-19T08:29:26.812Z,17.30
2023-05-19T08:31:53.787Z,17.30
2023-05-19T08:34:20.863Z,17.40
2023-05-19T08:36:47.897Z,17.60
2023-05-19T08:39:16.302Z,17.70
2023-05-19T08:41:43.376Z,17.40
2023-05-19T08:44:10.418Z,17.60
2023-05-19T08:46:37.412Z,17.90
2023-05-19T08:49:11.535Z,17.80
2023-05-19T08:52:13.759Z,17.80
2023-05-19T08:54:50.875Z,18.00
2023-05-19T08:57:18.741Z,18.30
2023-05-19T08:59:46.023Z,18.10
2023-05-19T09:02:14.301Z,17.80
2023-05-19T09:04:45.816Z,17.10
2023-05-19T09:07:16.771Z,16.70
2023-05-19T09:09:44.150Z,16.70
2023-05-19T09:12:11.696Z,17.00
2023-05-19T09:14:39.136Z,17.20
2023-05-19T09:17:06.624Z,17.20
2023-05-19T09:19:33.891Z,17.40
2023-05-19T09:22:03.862Z,17.20
2023-05-19T09:24:31.630Z,17.10
2023-05-19T09:27:00.063Z,17.10
2023-05-19T09:29:27.624Z,16.90
2023-05-19T09:32:00.534Z,16.90
2023-05-19T09:34:28.006Z,17.00
2023-05-19T09:36:55.172Z,16.80
2023-05-19T09:39:25.864Z,16.70
2023-05-19T09:41:54.147Z,16.70
2023-05-19T09:44:23.754Z,16.50
2023-05-19T09:46:51.849Z,16.50
2023-05-19T09:49:32.772Z,16.30
2023-05-19T09:52:03.650Z,16.40
2023-05-19T09:54:32.531Z,16.50
2023-05-19T09:57:04.090Z,16.60
2023-05-19T09:59:33.448Z,16.70
2023-05-19T10:02:01.611Z,16.90
2023-05-19T10:04:29.950Z,16.80
2023-05-19T10:07:00.907Z,16.90
2023-05-19T10:09:29.436Z,17.00
2023-05-19T10:11:57.923Z,17.00
2023-05-19T10:14:26.865Z,16.80
2023-05-19T10:16:55.482Z,16.60
2023-05-19T10:19:23.996Z,16.70
2023-05-19T10:21:51.787Z,16.70
2023-05-19T10:24:19.686Z,16.50
2023-05-19T10:26:55.101Z,16.50
2023-05-19T10:29:30.098Z,16.40
2023-05-19T10:32:02.475Z,16.30
2023-05-19T10:34:50.182Z,16.50
2023-05-19T10:37:45.054Z,16.60
2023-05-19T10:40:36.756Z,16.80
2023-05-19T10:43:26.091Z,16.80
2023-05-19T10:45:54.413Z,16.80
2023-05-19T10:48:22.439Z,16.70
2023-05-19T10:50:53.232Z,16.60
2023-05-19T10:53:22.530Z,16.50
2023-05-19T10:56:00.139Z,16.30
2023-05-19T10:58:59.494Z,16.60
2023-05-19T11:01:34.874Z,16.60
2023-05-19T11:04:07.490Z,16.60
2023-05-19T11:06:38.720Z,16.90
2023-05-19T11:09:17.930Z,16.90
2023-05-19T11:11:55.210Z,16.80
2023-05-19T11:14:29.109Z,16.80
2023-05-19T11:17:00.648Z,16.90
2023-05-19T11:19:35.429Z,17.00
2023-05-19T11:22:10.869Z,17.00
2023-05-19T11:24:50.007Z,17.20
2023-05-19T11:27:38.390Z,17.20
2023-05-19T11:30:19.145Z,17.10
2023-05-19T11:32:48.404Z,17.30
2023-05-19T11:35:19.052Z,17.40
2023-05-19T11:37:47.687Z,17.50
2023-05-19T11:40:15.832Z,17.60
2023-05-19T11:42:42.702Z,17.60
2023-05-19T11:45:10.437Z,17.50
2023-05-19T11:47:50.812Z,17.70
2023-05-19T11:50:25.464Z,17.80
2023-05-19T11:52:53.187Z,17.80
2023-05-19T11:55:22.233Z,17.50
2023-05-19T11:58:07.315Z,17.60
2023-05-19T12:00:40.256Z,17.50
2023-05-19T12:03:09.173Z,17.40
2023-05-19T12:05:44.790Z,17.20
2023-05-19T12:08:12.420Z,17.20
2023-05-19T12:10:40.269Z,17.20
2023-05-19T12:13:10.717Z,17.10
2023-05-19T12:15:38.745Z,17.30
2023-05-19T12:18:06.759Z,17.30
2023-05-19T12:20:35.999Z,17.20
2023-05-19T12:23:03.930Z,17.20
2023-05-19T12:25:32.099Z,17.20
2023-05-19T12:28:00.856Z,17.30
2023-05-19T12:30:29.186Z,17.40
2023-05-19T12:32:57.967Z,17.30
2023-05-19T12:35:34.605Z,17.20
2023-05-19T12:38:06.160Z,17.20
2023-05-19T12:40:37.557Z,17.20
2023-05-19T12:43:05.778Z,17.30
2023-05-19T12:45:37.280Z,17.30
2023-05-19T12:48:15.963Z,17.40
2023-05-19T12:50:45.103Z,17.50
2023-05-19T12:53:13.105Z,17.70
2023-05-19T12:55:42.857Z,17.70
2023-05-19T12:58:11.532Z,17.70
2023-05-19T13:00:43.918Z,17.70
2023-05-19T13:03:20.964Z,17.60
2023-05-19T13:05:50.343Z,17.40
2023-05-19T13:08:20.046Z,17.50
2023-05-19T13:10:47.593Z,17.60
2023-05-19T13:13:14.474Z,17.70
2023-05-19T13:15:45.992Z,17.60
2023-05-19T13:18:13.953Z,17.60
2023-05-19T13:20:42.923Z,17.40
2023-05-19T13:23:11.080Z,17.20
2023-05-19T13:25:38.557Z,17.10
2023-05-19T13:28:05.853Z,17.00
2023-05-19T13:30:34.837Z,17.10
2023-05-19T13:33:02.805Z,17.00
2023-05-19T13:35:30.741Z,17.00
2023-05-19T13:37:57.897Z,16.90
2023-05-19T13:40:25.991Z,16.80
2023-05-19T13:42:52.900Z,16.80
2023-05-19T13:45:19.835Z,16.80
2023-05-19T13:47:46.900Z,16.80
2023-05-19T13:50:13.780Z,16.80
2023-05-19T13:52:40.991Z,16.80
2023-05-19T13:55:08.386Z,16.90
2023-05-19T13:57:35.579Z,16.90
2023-05-19T14:00:04.463Z,17.00
2023-05-19T14:02:40.844Z,17.10
2023-05-19T14:05:08.617Z,16.80
2023-05-19T14:07:35.884Z,16.50
2023-05-19T14:10:05.412Z,16.60
2023-05-19T14:12:39.761Z,16.60
2023-05-19T14:15:14.611Z,16.60
2023-05-19T14:17:41.954Z,16.60
2023-05-19T14:20:09.718Z,16.60
2023-05-19T14:22:36.678Z,16.60
2023-05-19T14:25:03.891Z,16.40
2023-05-19T14:27:30.817Z,16.30
2023-05-19T14:29:57.871Z,16.50
2023-05-19T14:32:25.289Z,16.50
2023-05-19T14:34:53.283Z,16.50
2023-05-19T14:37:20.750Z,16.50
2023-05-19T14:39:47.688Z,16.50
2023-05-19T14:42:14.742Z,16.60
2023-05-19T14:44:41.678Z,16.40
2023-05-19T14:47:08.718Z,16.40
2023-05-19T14:49:35.711Z,16.30
2023-05-19T14:52:02.695Z,16.30
2023-05-19T14:54:29.615Z,16.20
2023-05-19T14:56:56.515Z,16.20
2023-05-19T14:59:23.481Z,16.20
2023-05-19T15:01:50.346Z,16.30
2023-05-19T15:04:17.336Z,16.50
2023-05-19T15:06:45.222Z,16.50
2023-05-19T15:09:14.874Z,16.70
2023-05-19T15:11:41.828Z,16.80
2023-05-19T15:14:08.788Z,16.80
2023-05-19T15:16:35.859Z,16.70
2023-05-19T15:19:02.833Z,16.60
2023-05-19T15:21:29.871Z,16.50
2023-05-19T15:23:56.733Z,16.50
2023-05-19T15:26:23.635Z,16.50
2023-05-19T15:28:52.319Z,16.40
2023-05-19T15:31:19.251Z,16.20
2023-05-19T15:33:46.294Z,16.30
2023-05-19T15:36:16.421Z,16.30
2023-05-19T15:38:43.413Z,16.20
2023-05-19T15:41:11.078Z,16.30
2023-05-19T15:43:38.674Z,16.30
2023-05-19T15:46:05.625Z,16.50
2023-05-19T15:48:32.824Z,16.50
2023-05-19T15:50:59.954Z,16.40
2023-05-19T15:53:26.973Z,16.30
2023-05-19T15:55:53.939Z,16.20
2023-05-19T15:58:20.914Z,16.20
2023-05-19T16:00:47.896Z,16.10
2023-05-19T16:03:14.981Z,16.00
2023-05-19T16:05:41.886Z,16.00
2023-05-19T16:08:08.979Z,16.00
2023-05-19T16:10:36.064Z,16.10
2023-05-19T16:13:02.984Z,15.90
2023-05-19T16:15:29.860Z,15.80
2023-05-19T16:17:57.258Z,15.80
2023-05-19T16:20:27.866Z,15.90
2023-05-19T16:22:55.470Z,15.90
2023-05-19T16:25:22.748Z,15.90
2023-05-19T16:27:50.337Z,15.60
2023-05-19T16:30:17.536Z,15.60
2023-05-19T16:32:44.739Z,15.50
2023-05-19T16:35:11.790Z,15.50
2023-05-19T16:37:38.776Z,15.50
2023-05-19T16:40:06.341Z,15.40
2023-05-19T16:42:33.219Z,15.30
2023-05-19T16:45:00.122Z,15.30
2023-05-19T16:47:27.097Z,15.20
2023-05-19T16:49:54.151Z,15.20
2023-05-19T16:52:21.024Z,15.10
2023-05-19T16:54:47.986Z,15.00
2023-05-19T16:57:14.956Z,15.00
2023-05-19T16:59:42.601Z,15.00
2023-05-19T17:02:09.485Z,15.00
2023-05-19T17:04:36.487Z,15.00
2023-05-19T17:07:03.460Z,15.00
2023-05-19T17:09:30.463Z,14.90
2023-05-19T17:11:57.411Z,14.90
2023-05-19T17:14:24.307Z,14.90
2023-05-19T17:16:52.521Z,14.90
2023-05-19T17:19:19.581Z,14.90
2023-05-19T17:21:46.547Z,14.80
2023-05-19T17:24:13.434Z,14.80
2023-05-19T17:26:40.408Z,14.70
2023-05-19T17:29:07.336Z,14.80
2023-05-19T17:31:34.273Z,14.80
2023-05-19T17:34:01.263Z,14.80
2023-05-19T17:36:28.273Z,14.80
2023-05-19T17:38:55.236Z,14.80
2023-05-19T17:41:22.794Z,14.80
2023-05-19T17:43:49.750Z,14.80
2023-05-19T17:46:16.767Z,14.80
2023-05-19T17:48:43.944Z,14.80
2023-05-19T17:51:11.485Z,14.80
2023-05-19T17:53:38.822Z,14.90
2023-05-19T17:56:08.821Z,14.90
2023-05-19T17:58:36.035Z,14.80
2023-05-19T18:01:03.192Z,14.90
2023-05-19T18:03:30.783Z,14.90
2023-05-19T18:05:58.729Z,14.90
2023-05-19T18:08:26.142Z,14.90
2023-05-19T18:10:54.994Z,14.90
2023-05-19T18:13:23.591Z,14.90
2023-05-19T18:15:52.603Z,15.00
2023-05-19T18:18:19.669Z,15.00
2023-05-19T18:20:46.670Z,15.00
2023-05-19T18:23:13.589Z,15.00
2023-05-19T18:25:40.618Z,15.10
2023-05-19T18:28:08.520Z,14.90
2023-05-19T18:30:36.074Z,14.90
2023-05-19T18:33:04.084Z,15.00
2023-05-19T18:35:31.111Z,15.00
2023-05-19T18:37:58.035Z,15.00
2023-05-19T18:40:24.903Z,14.90
2023-05-19T18:42:51.841Z,15.10
2023-05-19T18:45:18.986Z,15.30
2023-05-19T18:47:47.112Z,15.40
2023-05-19T18:50:14.498Z,15.70
2023-05-19T18:52:41.461Z,15.30
2023-05-19T18:55:08.924Z,15.20
2023-05-19T18:57:35.987Z,15.40
2023-05-19T19:00:04.253Z,15.40
2023-05-19T19:02:31.415Z,15.50
2023-05-19T19:04:58.620Z,15.50
2023-05-19T19:07:27.706Z,15.60
2023-05-19T19:09:54.631Z,15.60
2023-05-19T19:12:21.474Z,15.50
2023-05-19T19:14:48.524Z,15.50
2023-05-19T19:17:15.893Z,15.50
2023-05-19T19:19:43.015Z,15.50
2023-05-19T19:22:10.080Z,15.50
2023-05-19T19:24:37.019Z,15.50
2023-05-19T19:27:04.265Z,15.50
2023-05-19T19:29:31.189Z,15.50
2023-05-19T19:31:58.123Z,15.50
2023-05-19T19:34:25.164Z,15.50
2023-05-19T19:36:52.290Z,15.50
2023-05-19T19:39:19.320Z,15.40
2023-05-19T19:41:46.424Z,15.40
2023-05-19T19:44:13.738Z,15.40
2023-05-19T19:46:40.763Z,15.40
2023-05-19T19:49:07.846Z,15.40
2023-05-19T19:51:34.714Z,15.40
2023-05-19T19:54:01.652Z,15.40
2023-05-19T19:56:28.605Z,15.40
2023-05-19T19:58:59.096Z,15.40
2023-05-19T20:01:27.340Z,15.40
2023-05-19T20:03:55.963Z,15.40
2023-05-19T20:06:23.431Z,15.40
2023-05-19T20:08:50.542Z,15.30
2023-05-19T20:11:17.564Z,15.30
2023-05-19T20:13:44.566Z,15.30
2023-05-19T20:16:11.561Z,15.30
2023-05-19T20:18:39.458Z,15.30
2023-05-19T20:21:06.536Z,15.20
2023-05-19T20:23:33.460Z,15.20
2023-05-19T20:26:12.066Z,15.00
2023-05-19T20:28:39.894Z,15.00
2023-05-19T20:31:07.065Z,14.90
2023-05-19T20:33:34.303Z,14.90
2023-05-19T20:36:01.235Z,14.80
2023-05-19T20:38:28.147Z,14.80
2023-05-19T20:40:55.090Z,14.80
2023-05-19T20:43:22.082Z,14.90
2023-05-19T20:45:48.953Z,14.80
2023-05-19T20:48:16.111Z,14.80
2023-05-19T20:50:43.208Z,14.60
2023-05-19T20:53:10.116Z,14.60
2023-05-19T20:55:38.712Z,14.60
2023-05-19T20:58:05.783Z,14.60
2023-05-19T21:00:33.062Z,14.60
2023-05-19T21:03:00.792Z,14.60
2023-05-19T21:05:27.830Z,14.70
2023-05-19T21:07:54.790Z,14.60
2023-05-19T21:10:21.798Z,14.40
2023-05-19T21:12:48.914Z,14.40
2023-05-19T21:15:15.839Z,14.30
2023-05-19T21:17:46.576Z,14.30
2023-05-19T21:20:13.651Z,14.30
2023-05-19T21:22:41.070Z,14.30
2023-05-19T21:25:08.576Z,14.30
2023-05-19T21:27:36.333Z,14.20
2023-05-19T21:30:03.427Z,14.20
2023-05-19T21:32:30.511Z,14.10
2023-05-19T21:34:57.555Z,14.10
2023-05-19T21:37:24.468Z,14.00
2023-05-19T21:39:51.591Z,14.00
2023-05-19T21:42:18.643Z,14.00
2023-05-19T21:44:45.688Z,13.90
2023-05-19T21:47:12.622Z,13.90
2023-05-19T21:49:40.174Z,13.80
2023-05-19T21:52:10.387Z,13.80
2023-05-19T21:54:38.656Z,13.80
2023-05-19T21:57:05.867Z,13.70
2023-05-19T21:59:32.832Z,13.70
2023-05-19T22:01:59.841Z,13.70
2023-05-19T22:04:27.102Z,13.70
2023-05-19T22:06:53.991Z,13.60
2023-05-19T22:09:21.648Z,13.50
2023-05-19T22:11:48.468Z,13.50
2023-05-19T22:14:15.462Z,13.50
2023-05-19T22:16:42.474Z,13.50
2023-05-19T22:19:10.540Z,13.30
2023-05-19T22:21:37.573Z,13.20
2023-05-19T22:24:04.637Z,13.10
2023-05-19T22:26:31.596Z,13.10
2023-05-19T22:28:58.532Z,13.10
2023-05-19T22:31:25.382Z,13.00
2023-05-19T22:33:52.410Z,13.00
2023-05-19T22:36:19.301Z,12.90
2023-05-19T22:38:46.186Z,12.80
2023-05-19T22:41:13.078Z,12.80
2023-05-19T22:43:40.030Z,12.70
2023-05-19T22:46:06.982Z,12.70
2023-05-19T22:48:33.964Z,12.60
2023-05-19T22:51:01.002Z,12.60
2023-05-19T22:53:27.945Z,12.60
2023-05-19T22:55:54.916Z,12.60
2023-05-19T22:58:21.785Z,12.60
2023-05-19T23:00:48.694Z,12.60
2023-05-19T23:03:15.751Z,12.60
2023-05-19T23:05:43.125Z,12.60
2023-05-19T23:08:10.094Z,12.60
2023-05-19T23:10:38.045Z,12.60
2023-05-19T23:13:05.002Z,12.70
2023-05-19T23:15:32.204Z,12.70
2023-05-19T23:18:01.176Z,12.80
2023-05-19T23:20:28.130Z,12.60
2023-05-19T23:22:55.024Z,12.30
2023-05-19T23:25:22.116Z,12.40
2023-05-19T23:27:49.042Z,12.50
2023-05-19T23:30:16.095Z,12.50
2023-05-19T23:32:43.104Z,12.60
2023-05-19T23:35:15.554Z,12.50
2023-05-19T23:37:42.862Z,12.40
2023-05-19T23:40:10.227Z,12.20
2023-05-19T23:42:37.382Z,12.10
2023-05-19T23:45:05.529Z,12.00
2023-05-19T23:47:32.474Z,12.00
2023-05-19T23:49:59.406Z,12.10
2023-05-19T23:52:26.349Z,12.20
2023-05-19T23:54:53.354Z,12.30
2023-05-19T23:57:20.237Z,12.30
2023-05-19T23:59:47.265Z,12.30
